sensor_id;sensor_type;location;lat;lon;timestamp;P1;durP1;ratioP1;P2;durP2;ratioP2
4313;SDS011;2170;48.794;9.182;2023-07-08T00:00:47;9.10;;;8.20;;
4313;SDS011;2170;48.794;9.182;2023-07-08T00:03:18;8.20;;;7.40;;
4313;SDS011;2170;48.794;9.182;2023-07-08T00:05:48;9.40;;;8.50;;
4313;SDS011;2170;48.794;9.182;2023-07-08T00:08:21;9.37;;;7.40;;
4313;SDS011;2170;48.794;9.182;2023-07-08T00:10:52;8.83;;;7.87;;
4313;SDS011;2170;48.794;9.182;2023-07-08T00:13:20;9.80;;;7.53;;
4313;SDS011;2170;48.794;9.182;2023-07-08T00:15:48;9.07;;;8.17;;
4313;SDS011;2170;48.794;9.182;2023-07-08T00:18:17;9.50;;;8.37;;
4313;SDS011;2170;48.794;9.182;2023-07-08T00:20:45;9.63;;;8.20;;
4313;SDS011;2170;48.794;9.182;2023-07-08T00:23:13;9.50;;;8.10;;
4313;SDS011;2170;48.794;9.182;2023-07-08T00:25:43;9.77;;;8.77;;
4313;SDS011;2170;48.794;9.182;2023-07-08T00:28:15;11.87;;;8.83;;
4313;SDS011;2170;48.794;9.182;2023-07-08T00:30:47;8.70;;;7.90;;
4313;SDS011;2170;48.794;9.182;2023-07-08T00:33:15;8.57;;;7.60;;
4313;SDS011;2170;48.794;9.182;2023-07-08T00:35:45;9.63;;;8.07;;
4313;SDS011;2170;48.794;9.182;2023-07-08T00:38:17;10.63;;;8.40;;
4313;SDS011;2170;48.794;9.182;2023-07-08T00:40:57;9.10;;;8.10;;
4313;SDS011;2170;48.794;9.182;2023-07-08T00:43:30;9.07;;;8.00;;
4313;SDS011;2170;48.794;9.182;2023-07-08T00:46:01;9.03;;;8.13;;
4313;SDS011;2170;48.794;9.182;2023-07-08T00:48:31;8.50;;;7.70;;
4313;SDS011;2170;48.794;9.182;2023-07-08T00:51:01;8.83;;;8.03;;
4313;SDS011;2170;48.794;9.182;2023-07-08T00:53:32;11.57;;;9.03;;
4313;SDS011;2170;48.794;9.182;2023-07-08T00:56:03;8.80;;;7.90;;
4313;SDS011;2170;48.794;9.182;2023-07-08T00:58:37;10.10;;;9.10;;
4313;SDS011;2170;48.794;9.182;2023-07-08T01:01:09;10.43;;;8.53;;
4313;SDS011;2170;48.794;9.182;2023-07-08T01:03:38;11.50;;;8.03;;
4313;SDS011;2170;48.794;9.182;2023-07-08T01:06:10;9.00;;;7.87;;
4313;SDS011;2170;48.794;9.182;2023-07-08T01:08:38;9.07;;;8.17;;
4313;SDS011;2170;48.794;9.182;2023-07-08T01:11:07;9.93;;;8.00;;
4313;SDS011;2170;48.794;9.182;2023-07-08T01:13:36;9.50;;;8.03;;
4313;SDS011;2170;48.794;9.182;2023-07-08T01:16:05;10.07;;;8.47;;
4313;SDS011;2170;48.794;9.182;2023-07-08T01:18:33;9.47;;;8.50;;
4313;SDS011;2170;48.794;9.182;2023-07-08T01:21:06;9.63;;;8.63;;
4313;SDS011;2170;48.794;9.182;2023-07-08T01:32:59;9.33;;;8.13;;
4313;SDS011;2170;48.794;9.182;2023-07-08T01:36:08;10.97;;;8.50;;
4313;SDS011;2170;48.794;9.182;2023-07-08T01:39:22;8.20;;;7.40;;
4313;SDS011;2170;48.794;9.182;2023-07-08T02:02:19;8.83;;;7.93;;
4313;SDS011;2170;48.794;9.182;2023-07-08T02:05:06;10.97;;;8.70;;
4313;SDS011;2170;48.794;9.182;2023-07-08T02:14:03;9.53;;;8.53;;
4313;SDS011;2170;48.794;9.182;2023-07-08T02:16:47;11.13;;;8.07;;
4313;SDS011;2170;48.794;9.182;2023-07-08T02:40:57;10.70;;;8.80;;
4313;SDS011;2170;48.794;9.182;2023-07-08T02:43:58;9.80;;;8.80;;
4313;SDS011;2170;48.794;9.182;2023-07-08T02:46:41;10.33;;;8.53;;
4313;SDS011;2170;48.794;9.182;2023-07-08T02:49:20;9.63;;;8.50;;
4313;SDS011;2170;48.794;9.182;2023-07-08T02:52:05;12.10;;;8.20;;
4313;SDS011;2170;48.794;9.182;2023-07-08T02:54:46;9.67;;;8.10;;
4313;SDS011;2170;48.794;9.182;2023-07-08T02:57:17;9.20;;;8.20;;
4313;SDS011;2170;48.794;9.182;2023-07-08T03:00:06;9.20;;;8.20;;
4313;SDS011;2170;48.794;9.182;2023-07-08T03:06:45;10.40;;;7.70;;
4313;SDS011;2170;48.794;9.182;2023-07-08T03:08:59;10.37;;;7.53;;
4313;SDS011;2170;48.794;9.182;2023-07-08T03:11:51;10.77;;;7.30;;
4313;SDS011;2170;48.794;9.182;2023-07-08T03:14:29;8.73;;;7.60;;
4313;SDS011;2170;48.794;9.182;2023-07-08T03:17:13;9.30;;;8.20;;
4313;SDS011;2170;48.794;9.182;2023-07-08T03:23:05;8.37;;;7.47;;
4313;SDS011;2170;48.794;9.182;2023-07-08T03:25:49;7.80;;;7.10;;
4313;SDS011;2170;48.794;9.182;2023-07-08T03:31:37;8.80;;;7.60;;
4313;SDS011;2170;48.794;9.182;2023-07-08T03:37:34;9.83;;;8.07;;
4313;SDS011;2170;48.794;9.182;2023-07-08T03:40:28;8.23;;;7.43;;
4313;SDS011;2170;48.794;9.182;2023-07-08T03:43:17;8.80;;;8.00;;
4313;SDS011;2170;48.794;9.182;2023-07-08T03:46:19;9.73;;;7.60;;
4313;SDS011;2170;48.794;9.182;2023-07-08T03:49:04;8.07;;;7.27;;
4313;SDS011;2170;48.794;9.182;2023-07-08T03:51:34;10.27;;;8.63;;
4313;SDS011;2170;48.794;9.182;2023-07-08T03:54:27;9.17;;;8.20;;
4313;SDS011;2170;48.794;9.182;2023-07-08T03:57:01;8.97;;;8.07;;
4313;SDS011;2170;48.794;9.182;2023-07-08T03:59:30;10.77;;;8.97;;
4313;SDS011;2170;48.794;9.182;2023-07-08T04:02:01;12.13;;;8.90;;
4313;SDS011;2170;48.794;9.182;2023-07-08T04:04:47;9.27;;;8.37;;
4313;SDS011;2170;48.794;9.182;2023-07-08T04:07:25;11.30;;;8.97;;
4313;SDS011;2170;48.794;9.182;2023-07-08T04:10:01;9.73;;;8.83;;
4313;SDS011;2170;48.794;9.182;2023-07-08T04:12:37;10.80;;;8.37;;
4313;SDS011;2170;48.794;9.182;2023-07-08T04:15:14;12.13;;;8.50;;
4313;SDS011;2170;48.794;9.182;2023-07-08T04:17:54;10.37;;;8.43;;
4313;SDS011;2170;48.794;9.182;2023-07-08T04:20:28;11.47;;;8.40;;
4313;SDS011;2170;48.794;9.182;2023-07-08T04:22:58;10.70;;;9.10;;
4313;SDS011;2170;48.794;9.182;2023-07-08T04:25:27;9.30;;;8.30;;
4313;SDS011;2170;48.794;9.182;2023-07-08T04:27:55;9.07;;;8.27;;
4313;SDS011;2170;48.794;9.182;2023-07-08T04:30:31;10.30;;;9.07;;
4313;SDS011;2170;48.794;9.182;2023-07-08T04:33:14;9.57;;;8.67;;
4313;SDS011;2170;48.794;9.182;2023-07-08T04:36:05;10.60;;;8.87;;
4313;SDS011;2170;48.794;9.182;2023-07-08T04:38:52;9.93;;;8.23;;
4313;SDS011;2170;48.794;9.182;2023-07-08T04:41:45;9.93;;;8.90;;
4313;SDS011;2170;48.794;9.182;2023-07-08T04:47:21;10.93;;;8.73;;
4313;SDS011;2170;48.794;9.182;2023-07-08T05:02:42;9.90;;;8.90;;
4313;SDS011;2170;48.794;9.182;2023-07-08T05:05:25;10.47;;;8.80;;
4313;SDS011;2170;48.794;9.182;2023-07-08T05:10:50;10.50;;;9.40;;
4313;SDS011;2170;48.794;9.182;2023-07-08T05:13:25;10.43;;;9.33;;
4313;SDS011;2170;48.794;9.182;2023-07-08T05:15:57;9.90;;;8.80;;
4313;SDS011;2170;48.794;9.182;2023-07-08T05:18:29;9.60;;;8.70;;
4313;SDS011;2170;48.794;9.182;2023-07-08T05:20:58;11.07;;;8.90;;
4313;SDS011;2170;48.794;9.182;2023-07-08T05:23:26;9.50;;;8.50;;
4313;SDS011;2170;48.794;9.182;2023-07-08T05:25:56;10.33;;;9.20;;
4313;SDS011;2170;48.794;9.182;2023-07-08T05:28:26;10.57;;;8.83;;
4313;SDS011;2170;48.794;9.182;2023-07-08T05:30:57;9.93;;;8.73;;
4313;SDS011;2170;48.794;9.182;2023-07-08T05:33:26;12.77;;;9.47;;
4313;SDS011;2170;48.794;9.182;2023-07-08T05:35:59;8.60;;;7.73;;
4313;SDS011;2170;48.794;9.182;2023-07-08T05:38:27;8.80;;;7.97;;
4313;SDS011;2170;48.794;9.182;2023-07-08T05:40:55;8.93;;;8.03;;
4313;SDS011;2170;48.794;9.182;2023-07-08T05:43:23;9.03;;;7.70;;
4313;SDS011;2170;48.794;9.182;2023-07-08T05:45:51;8.87;;;7.97;;
4313;SDS011;2170;48.794;9.182;2023-07-08T05:48:19;8.80;;;7.90;;
4313;SDS011;2170;48.794;9.182;2023-07-08T05:50:46;8.47;;;7.60;;
4313;SDS011;2170;48.794;9.182;2023-07-08T05:53:17;8.10;;;7.40;;
4313;SDS011;2170;48.794;9.182;2023-07-08T05:55:45;8.53;;;7.40;;
4313;SDS011;2170;48.794;9.182;2023-07-08T05:58:15;9.10;;;8.20;;
4313;SDS011;2170;48.794;9.182;2023-07-08T06:00:43;10.23;;;8.37;;
4313;SDS011;2170;48.794;9.182;2023-07-08T06:03:11;9.03;;;7.90;;
4313;SDS011;2170;48.794;9.182;2023-07-08T06:05:39;8.00;;;7.30;;
4313;SDS011;2170;48.794;9.182;2023-07-08T06:08:07;7.97;;;7.07;;
4313;SDS011;2170;48.794;9.182;2023-07-08T06:10:40;7.90;;;7.20;;
4313;SDS011;2170;48.794;9.182;2023-07-08T06:13:09;8.03;;;6.97;;
4313;SDS011;2170;48.794;9.182;2023-07-08T06:15:37;8.40;;;7.53;;
4313;SDS011;2170;48.794;9.182;2023-07-08T06:18:05;9.73;;;8.40;;
4313;SDS011;2170;48.794;9.182;2023-07-08T06:20:33;8.40;;;7.50;;
4313;SDS011;2170;48.794;9.182;2023-07-08T06:23:01;8.90;;;8.00;;
4313;SDS011;2170;48.794;9.182;2023-07-08T06:25:31;8.90;;;8.07;;
4313;SDS011;2170;48.794;9.182;2023-07-08T06:28:07;8.90;;;7.60;;
4313;SDS011;2170;48.794;9.182;2023-07-08T06:30:34;8.00;;;7.30;;
4313;SDS011;2170;48.794;9.182;2023-07-08T06:33:03;8.60;;;7.80;;
4313;SDS011;2170;48.794;9.182;2023-07-08T06:35:31;14.23;;;9.03;;
4313;SDS011;2170;48.794;9.182;2023-07-08T06:37:59;12.00;;;9.10;;
4313;SDS011;2170;48.794;9.182;2023-07-08T06:40:29;9.93;;;8.63;;
4313;SDS011;2170;48.794;9.182;2023-07-08T06:42:57;9.50;;;7.70;;
4313;SDS011;2170;48.794;9.182;2023-07-08T06:45:26;9.30;;;8.50;;
4313;SDS011;2170;48.794;9.182;2023-07-08T06:47:54;8.53;;;7.63;;
4313;SDS011;2170;48.794;9.182;2023-07-08T06:50:22;10.47;;;7.70;;
4313;SDS011;2170;48.794;9.182;2023-07-08T06:52:49;7.83;;;7.03;;
4313;SDS011;2170;48.794;9.182;2023-07-08T06:55:23;9.20;;;7.83;;
4313;SDS011;2170;48.794;9.182;2023-07-08T06:57:52;9.97;;;8.73;;
4313;SDS011;2170;48.794;9.182;2023-07-08T07:00:23;8.17;;;6.93;;
4313;SDS011;2170;48.794;9.182;2023-07-08T07:02:53;7.97;;;6.47;;
4313;SDS011;2170;48.794;9.182;2023-07-08T07:05:23;7.27;;;6.20;;
4313;SDS011;2170;48.794;9.182;2023-07-08T07:07:53;6.57;;;5.93;;
4313;SDS011;2170;48.794;9.182;2023-07-08T07:10:22;7.57;;;5.77;;
4313;SDS011;2170;48.794;9.182;2023-07-08T07:12:56;5.40;;;4.90;;
4313;SDS011;2170;48.794;9.182;2023-07-08T07:15:27;7.23;;;5.97;;
4313;SDS011;2170;48.794;9.182;2023-07-08T07:17:59;5.60;;;5.10;;
4313;SDS011;2170;48.794;9.182;2023-07-08T07:20:28;6.30;;;5.13;;
4313;SDS011;2170;48.794;9.182;2023-07-08T07:23:05;5.97;;;5.27;;
4313;SDS011;2170;48.794;9.182;2023-07-08T07:25:36;6.67;;;5.50;;
4313;SDS011;2170;48.794;9.182;2023-07-08T07:28:07;6.53;;;5.17;;
4313;SDS011;2170;48.794;9.182;2023-07-08T07:30:39;5.80;;;5.20;;
4313;SDS011;2170;48.794;9.182;2023-07-08T07:33:10;5.60;;;5.03;;
4313;SDS011;2170;48.794;9.182;2023-07-08T07:35:41;8.37;;;5.53;;
4313;SDS011;2170;48.794;9.182;2023-07-08T07:38:10;5.43;;;5.03;;
4313;SDS011;2170;48.794;9.182;2023-07-08T07:40:41;8.03;;;6.20;;
4313;SDS011;2170;48.794;9.182;2023-07-08T07:43:12;5.87;;;5.30;;
4313;SDS011;2170;48.794;9.182;2023-07-08T07:45:50;6.20;;;5.63;;
4313;SDS011;2170;48.794;9.182;2023-07-08T07:48:20;6.17;;;5.10;;
4313;SDS011;2170;48.794;9.182;2023-07-08T07:50:57;7.20;;;6.13;;
4313;SDS011;2170;48.794;9.182;2023-07-08T07:53:51;6.53;;;5.93;;
4313;SDS011;2170;48.794;9.182;2023-07-08T07:56:20;8.67;;;5.40;;
4313;SDS011;2170;48.794;9.182;2023-07-08T07:58:50;6.67;;;5.30;;
4313;SDS011;2170;48.794;9.182;2023-07-08T08:01:25;6.27;;;5.67;;
4313;SDS011;2170;48.794;9.182;2023-07-08T08:04:00;6.50;;;5.80;;
4313;SDS011;2170;48.794;9.182;2023-07-08T08:06:42;6.43;;;5.23;;
4313;SDS011;2170;48.794;9.182;2023-07-08T08:09:13;7.43;;;4.90;;
4313;SDS011;2170;48.794;9.182;2023-07-08T08:11:51;8.40;;;5.13;;
4313;SDS011;2170;48.794;9.182;2023-07-08T08:14:22;5.67;;;5.03;;
4313;SDS011;2170;48.794;9.182;2023-07-08T08:16:50;6.30;;;4.40;;
4313;SDS011;2170;48.794;9.182;2023-07-08T08:19:20;4.20;;;3.37;;
4313;SDS011;2170;48.794;9.182;2023-07-08T08:21:51;4.33;;;3.93;;
4313;SDS011;2170;48.794;9.182;2023-07-08T08:24:29;7.13;;;4.87;;
4313;SDS011;2170;48.794;9.182;2023-07-08T08:26:59;5.80;;;4.40;;
4313;SDS011;2170;48.794;9.182;2023-07-08T08:29:32;5.20;;;3.73;;
4313;SDS011;2170;48.794;9.182;2023-07-08T08:32:04;4.90;;;3.37;;
4313;SDS011;2170;48.794;9.182;2023-07-08T08:35:02;6.53;;;4.20;;
4313;SDS011;2170;48.794;9.182;2023-07-08T08:37:37;4.63;;;4.13;;
4313;SDS011;2170;48.794;9.182;2023-07-08T08:40:21;4.30;;;3.90;;
4313;SDS011;2170;48.794;9.182;2023-07-08T08:42:51;5.10;;;4.07;;
4313;SDS011;2170;48.794;9.182;2023-07-08T08:45:32;3.57;;;3.27;;
4313;SDS011;2170;48.794;9.182;2023-07-08T08:48:06;4.10;;;3.47;;
4313;SDS011;2170;48.794;9.182;2023-07-08T08:51:04;8.90;;;3.30;;
4313;SDS011;2170;48.794;9.182;2023-07-08T08:53:36;4.07;;;3.47;;
4313;SDS011;2170;48.794;9.182;2023-07-08T08:56:05;4.50;;;3.40;;
4313;SDS011;2170;48.794;9.182;2023-07-08T08:58:40;5.80;;;3.43;;
4313;SDS011;2170;48.794;9.182;2023-07-08T09:01:12;3.00;;;2.70;;
4313;SDS011;2170;48.794;9.182;2023-07-08T09:03:42;3.73;;;3.37;;
4313;SDS011;2170;48.794;9.182;2023-07-08T09:06:16;6.33;;;3.20;;
4313;SDS011;2170;48.794;9.182;2023-07-08T09:08:48;3.50;;;3.13;;
4313;SDS011;2170;48.794;9.182;2023-07-08T09:11:23;5.40;;;3.57;;
4313;SDS011;2170;48.794;9.182;2023-07-08T09:14:07;6.83;;;4.43;;
4313;SDS011;2170;48.794;9.182;2023-07-08T09:16:49;3.50;;;3.20;;
4313;SDS011;2170;48.794;9.182;2023-07-08T09:19:26;3.10;;;2.90;;
4313;SDS011;2170;48.794;9.182;2023-07-08T09:22:05;4.33;;;3.33;;
4313;SDS011;2170;48.794;9.182;2023-07-08T09:24:41;4.23;;;3.13;;
4313;SDS011;2170;48.794;9.182;2023-07-08T09:27:18;3.63;;;3.30;;
4313;SDS011;2170;48.794;9.182;2023-07-08T09:29:49;4.53;;;3.10;;
4313;SDS011;2170;48.794;9.182;2023-07-08T09:32:20;4.27;;;2.83;;
4313;SDS011;2170;48.794;9.182;2023-07-08T09:35:21;3.70;;;3.00;;
4313;SDS011;2170;48.794;9.182;2023-07-08T09:37:53;4.57;;;3.10;;
4313;SDS011;2170;48.794;9.182;2023-07-08T09:40:28;3.17;;;2.87;;
4313;SDS011;2170;48.794;9.182;2023-07-08T09:43:01;3.43;;;2.93;;
4313;SDS011;2170;48.794;9.182;2023-07-08T09:45:39;3.37;;;3.07;;
4313;SDS011;2170;48.794;9.182;2023-07-08T09:48:21;3.60;;;3.30;;
4313;SDS011;2170;48.794;9.182;2023-07-08T09:50:52;3.03;;;2.83;;
4313;SDS011;2170;48.794;9.182;2023-07-08T09:53:24;3.30;;;2.83;;
4313;SDS011;2170;48.794;9.182;2023-07-08T09:55:53;6.13;;;5.53;;
4313;SDS011;2170;48.794;9.182;2023-07-08T09:58:27;4.87;;;3.20;;
4313;SDS011;2170;48.794;9.182;2023-07-08T10:01:08;4.00;;;3.60;;
4313;SDS011;2170;48.794;9.182;2023-07-08T10:03:41;3.50;;;3.20;;
4313;SDS011;2170;48.794;9.182;2023-07-08T10:06:16;6.57;;;3.60;;
4313;SDS011;2170;48.794;9.182;2023-07-08T10:08:49;5.90;;;3.70;;
4313;SDS011;2170;48.794;9.182;2023-07-08T10:14:25;2.57;;;2.40;;
4313;SDS011;2170;48.794;9.182;2023-07-08T10:17:05;3.20;;;2.90;;
4313;SDS011;2170;48.794;9.182;2023-07-08T10:19:45;3.33;;;3.03;;
4313;SDS011;2170;48.794;9.182;2023-07-08T10:23:02;4.60;;;3.53;;
4313;SDS011;2170;48.794;9.182;2023-07-08T10:26:03;4.10;;;3.70;;
4313;SDS011;2170;48.794;9.182;2023-07-08T10:29:18;3.83;;;3.50;;
4313;SDS011;2170;48.794;9.182;2023-07-08T10:32:00;4.50;;;4.10;;
4313;SDS011;2170;48.794;9.182;2023-07-08T10:34:40;4.50;;;3.90;;
4313;SDS011;2170;48.794;9.182;2023-07-08T10:37:23;5.40;;;4.10;;
4313;SDS011;2170;48.794;9.182;2023-07-08T10:40:05;4.67;;;4.10;;
4313;SDS011;2170;48.794;9.182;2023-07-08T10:42:54;4.90;;;4.40;;
4313;SDS011;2170;48.794;9.182;2023-07-08T10:45:32;5.10;;;4.60;;
4313;SDS011;2170;48.794;9.182;2023-07-08T10:48:16;6.10;;;4.73;;
4313;SDS011;2170;48.794;9.182;2023-07-08T10:50:59;6.90;;;4.60;;
4313;SDS011;2170;48.794;9.182;2023-07-08T10:53:41;5.90;;;3.93;;
4313;SDS011;2170;48.794;9.182;2023-07-08T10:56:28;6.83;;;3.70;;
4313;SDS011;2170;48.794;9.182;2023-07-08T10:59:31;4.23;;;3.47;;
4313;SDS011;2170;48.794;9.182;2023-07-08T11:02:35;4.50;;;3.50;;
4313;SDS011;2170;48.794;9.182;2023-07-08T11:08:20;4.07;;;3.13;;
4313;SDS011;2170;48.794;9.182;2023-07-08T11:10:58;3.40;;;3.10;;
4313;SDS011;2170;48.794;9.182;2023-07-08T11:13:36;4.10;;;3.50;;
4313;SDS011;2170;48.794;9.182;2023-07-08T11:16:25;7.67;;;3.30;;
4313;SDS011;2170;48.794;9.182;2023-07-08T11:19:12;4.00;;;3.50;;
4313;SDS011;2170;48.794;9.182;2023-07-08T11:21:44;3.47;;;2.70;;
4313;SDS011;2170;48.794;9.182;2023-07-08T11:24:16;3.50;;;3.03;;
4313;SDS011;2170;48.794;9.182;2023-07-08T11:26:53;3.40;;;3.10;;
4313;SDS011;2170;48.794;9.182;2023-07-08T11:29:26;3.50;;;3.10;;
4313;SDS011;2170;48.794;9.182;2023-07-08T11:32:05;3.33;;;3.13;;
4313;SDS011;2170;48.794;9.182;2023-07-08T11:34:47;4.27;;;3.23;;
4313;SDS011;2170;48.794;9.182;2023-07-08T11:37:23;3.67;;;3.03;;
4313;SDS011;2170;48.794;9.182;2023-07-08T11:39:53;3.93;;;3.10;;
4313;SDS011;2170;48.794;9.182;2023-07-08T11:42:27;3.67;;;3.20;;
4313;SDS011;2170;48.794;9.182;2023-07-08T11:45:23;3.43;;;3.20;;
4313;SDS011;2170;48.794;9.182;2023-07-08T11:48:11;4.93;;;2.80;;
4313;SDS011;2170;48.794;9.182;2023-07-08T11:50:43;3.03;;;2.77;;
4313;SDS011;2170;48.794;9.182;2023-07-08T11:53:14;5.10;;;3.37;;
4313;SDS011;2170;48.794;9.182;2023-07-08T11:56:02;3.43;;;3.13;;
4313;SDS011;2170;48.794;9.182;2023-07-08T12:01:27;3.00;;;2.80;;
4313;SDS011;2170;48.794;9.182;2023-07-08T12:04:15;3.30;;;2.90;;
4313;SDS011;2170;48.794;9.182;2023-07-08T12:06:53;3.90;;;3.23;;
4313;SDS011;2170;48.794;9.182;2023-07-08T12:09:36;3.40;;;3.10;;
4313;SDS011;2170;48.794;9.182;2023-07-08T12:12:06;3.47;;;2.83;;
4313;SDS011;2170;48.794;9.182;2023-07-08T12:14:43;3.20;;;2.90;;
4313;SDS011;2170;48.794;9.182;2023-07-08T12:17:15;2.80;;;2.60;;
4313;SDS011;2170;48.794;9.182;2023-07-08T12:19:57;5.67;;;2.90;;
4313;SDS011;2170;48.794;9.182;2023-07-08T12:23:07;3.60;;;2.73;;
4313;SDS011;2170;48.794;9.182;2023-07-08T12:32:39;3.07;;;2.80;;
4313;SDS011;2170;48.794;9.182;2023-07-08T12:38:39;5.60;;;3.10;;
4313;SDS011;2170;48.794;9.182;2023-07-08T12:41:18;2.90;;;2.70;;
4313;SDS011;2170;48.794;9.182;2023-07-08T12:44:01;3.33;;;2.50;;
4313;SDS011;2170;48.794;9.182;2023-07-08T12:46:44;2.90;;;2.70;;
4313;SDS011;2170;48.794;9.182;2023-07-08T12:49:21;3.40;;;3.10;;
4313;SDS011;2170;48.794;9.182;2023-07-08T12:51:54;3.53;;;2.67;;
4313;SDS011;2170;48.794;9.182;2023-07-08T12:54:22;4.33;;;2.90;;
4313;SDS011;2170;48.794;9.182;2023-07-08T12:56:54;3.20;;;2.90;;
4313;SDS011;2170;48.794;9.182;2023-07-08T12:59:32;3.73;;;2.70;;
4313;SDS011;2170;48.794;9.182;2023-07-08T13:04:20;2.80;;;2.60;;
4313;SDS011;2170;48.794;9.182;2023-07-08T13:05:23;3.23;;;2.43;;
4313;SDS011;2170;48.794;9.182;2023-07-08T13:08:14;2.80;;;2.60;;
4313;SDS011;2170;48.794;9.182;2023-07-08T13:10:58;2.87;;;2.53;;
4313;SDS011;2170;48.794;9.182;2023-07-08T13:13:42;3.00;;;2.40;;
4313;SDS011;2170;48.794;9.182;2023-07-08T13:16:16;2.90;;;2.60;;
4313;SDS011;2170;48.794;9.182;2023-07-08T13:18:45;2.87;;;2.63;;
4313;SDS011;2170;48.794;9.182;2023-07-08T13:21:15;3.03;;;2.77;;
4313;SDS011;2170;48.794;9.182;2023-07-08T13:23:51;2.47;;;2.30;;
4313;SDS011;2170;48.794;9.182;2023-07-08T13:26:25;5.77;;;2.90;;
4313;SDS011;2170;48.794;9.182;2023-07-08T13:29:00;5.47;;;2.90;;
4313;SDS011;2170;48.794;9.182;2023-07-08T13:31:33;2.70;;;2.50;;
4313;SDS011;2170;48.794;9.182;2023-07-08T13:34:23;7.10;;;6.60;;
4313;SDS011;2170;48.794;9.182;2023-07-08T13:37:33;3.20;;;2.53;;
4313;SDS011;2170;48.794;9.182;2023-07-08T13:43:52;2.60;;;2.40;;
4313;SDS011;2170;48.794;9.182;2023-07-08T13:46:32;2.17;;;2.07;;
4313;SDS011;2170;48.794;9.182;2023-07-08T13:49:19;3.17;;;2.33;;
4313;SDS011;2170;48.794;9.182;2023-07-08T13:51:50;3.13;;;2.70;;
4313;SDS011;2170;48.794;9.182;2023-07-08T13:54:24;2.60;;;2.40;;
4313;SDS011;2170;48.794;9.182;2023-07-08T13:56:59;2.27;;;2.07;;
4313;SDS011;2170;48.794;9.182;2023-07-08T14:02:37;3.50;;;2.20;;
4313;SDS011;2170;48.794;9.182;2023-07-08T14:05:44;2.30;;;2.10;;
4313;SDS011;2170;48.794;9.182;2023-07-08T14:08:28;3.53;;;3.27;;
4313;SDS011;2170;48.794;9.182;2023-07-08T14:11:29;4.33;;;2.30;;
4313;SDS011;2170;48.794;9.182;2023-07-08T14:14:44;4.60;;;2.57;;
4313;SDS011;2170;48.794;9.182;2023-07-08T14:17:18;2.17;;;1.97;;
4313;SDS011;2170;48.794;9.182;2023-07-08T14:19:49;3.03;;;2.50;;
4313;SDS011;2170;48.794;9.182;2023-07-08T14:22:29;2.83;;;2.33;;
4313;SDS011;2170;48.794;9.182;2023-07-08T14:24:58;2.70;;;2.50;;
4313;SDS011;2170;48.794;9.182;2023-07-08T14:27:33;2.50;;;2.30;;
4313;SDS011;2170;48.794;9.182;2023-07-08T14:30:02;3.03;;;2.33;;
4313;SDS011;2170;48.794;9.182;2023-07-08T14:32:38;3.20;;;2.47;;
4313;SDS011;2170;48.794;9.182;2023-07-08T14:35:12;2.53;;;2.33;;
4313;SDS011;2170;48.794;9.182;2023-07-08T14:37:45;3.30;;;3.00;;
4313;SDS011;2170;48.794;9.182;2023-07-08T14:40:20;2.37;;;2.17;;
4313;SDS011;2170;48.794;9.182;2023-07-08T14:42:53;2.57;;;2.37;;
4313;SDS011;2170;48.794;9.182;2023-07-08T14:45:26;3.23;;;2.63;;
4313;SDS011;2170;48.794;9.182;2023-07-08T14:48:07;5.93;;;2.10;;
4313;SDS011;2170;48.794;9.182;2023-07-08T14:50:39;2.93;;;2.50;;
4313;SDS011;2170;48.794;9.182;2023-07-08T14:53:12;3.00;;;1.97;;
4313;SDS011;2170;48.794;9.182;2023-07-08T14:55:41;3.40;;;2.30;;
4313;SDS011;2170;48.794;9.182;2023-07-08T14:58:19;3.30;;;2.90;;
4313;SDS011;2170;48.794;9.182;2023-07-08T15:00:52;3.70;;;2.50;;
4313;SDS011;2170;48.794;9.182;2023-07-08T15:03:26;2.37;;;2.27;;
4313;SDS011;2170;48.794;9.182;2023-07-08T15:06:04;3.07;;;2.63;;
4313;SDS011;2170;48.794;9.182;2023-07-08T15:08:37;2.87;;;2.60;;
4313;SDS011;2170;48.794;9.182;2023-07-08T15:11:20;3.07;;;2.77;;
4313;SDS011;2170;48.794;9.182;2023-07-08T15:13:53;3.00;;;2.57;;
4313;SDS011;2170;48.794;9.182;2023-07-08T15:16:22;3.17;;;2.97;;
4313;SDS011;2170;48.794;9.182;2023-07-08T15:18:52;5.13;;;2.90;;
4313;SDS011;2170;48.794;9.182;2023-07-08T15:21:24;5.03;;;2.80;;
4313;SDS011;2170;48.794;9.182;2023-07-08T15:23:52;5.70;;;2.93;;
4313;SDS011;2170;48.794;9.182;2023-07-08T15:26:20;2.90;;;2.47;;
4313;SDS011;2170;48.794;9.182;2023-07-08T15:28:49;4.50;;;2.57;;
4313;SDS011;2170;48.794;9.182;2023-07-08T15:31:18;2.50;;;2.20;;
4313;SDS011;2170;48.794;9.182;2023-07-08T15:36:38;3.90;;;3.17;;
4313;SDS011;2170;48.794;9.182;2023-07-08T15:39:13;3.83;;;2.60;;
4313;SDS011;2170;48.794;9.182;2023-07-08T15:41:46;3.20;;;2.90;;
4313;SDS011;2170;48.794;9.182;2023-07-08T15:44:24;8.53;;;2.40;;
4313;SDS011;2170;48.794;9.182;2023-07-08T15:46:53;2.30;;;2.20;;
4313;SDS011;2170;48.794;9.182;2023-07-08T15:49:44;5.20;;;2.50;;
4313;SDS011;2170;48.794;9.182;2023-07-08T15:55:56;3.37;;;3.07;;
4313;SDS011;2170;48.794;9.182;2023-07-08T15:58:31;3.00;;;2.70;;
4313;SDS011;2170;48.794;9.182;2023-07-08T16:01:19;3.73;;;2.60;;
4313;SDS011;2170;48.794;9.182;2023-07-08T16:03:53;5.97;;;3.10;;
4313;SDS011;2170;48.794;9.182;2023-07-08T16:06:30;3.10;;;2.80;;
4313;SDS011;2170;48.794;9.182;2023-07-08T16:09:02;6.13;;;3.00;;
4313;SDS011;2170;48.794;9.182;2023-07-08T16:11:32;3.27;;;2.73;;
4313;SDS011;2170;48.794;9.182;2023-07-08T16:14:01;2.23;;;2.10;;
4313;SDS011;2170;48.794;9.182;2023-07-08T16:16:30;2.50;;;2.30;;
4313;SDS011;2170;48.794;9.182;2023-07-08T16:19:02;5.60;;;2.77;;
4313;SDS011;2170;48.794;9.182;2023-07-08T16:21:32;4.03;;;2.87;;
4313;SDS011;2170;48.794;9.182;2023-07-08T16:24:00;2.97;;;2.60;;
4313;SDS011;2170;48.794;9.182;2023-07-08T16:26:29;3.10;;;2.90;;
4313;SDS011;2170;48.794;9.182;2023-07-08T16:28:57;3.53;;;2.20;;
4313;SDS011;2170;48.794;9.182;2023-07-08T16:31:26;2.70;;;2.10;;
4313;SDS011;2170;48.794;9.182;2023-07-08T16:33:56;3.00;;;2.80;;
4313;SDS011;2170;48.794;9.182;2023-07-08T16:36:29;2.77;;;2.50;;
4313;SDS011;2170;48.794;9.182;2023-07-08T16:39:07;2.80;;;2.60;;
4313;SDS011;2170;48.794;9.182;2023-07-08T16:41:36;5.30;;;2.60;;
4313;SDS011;2170;48.794;9.182;2023-07-08T16:44:15;4.30;;;2.40;;
4313;SDS011;2170;48.794;9.182;2023-07-08T16:46:45;3.97;;;2.40;;
4313;SDS011;2170;48.794;9.182;2023-07-08T16:49:19;2.40;;;2.20;;
4313;SDS011;2170;48.794;9.182;2023-07-08T16:51:50;2.43;;;2.23;;
4313;SDS011;2170;48.794;9.182;2023-07-08T16:54:20;3.40;;;2.37;;
4313;SDS011;2170;48.794;9.182;2023-07-08T16:56:52;5.97;;;2.93;;
4313;SDS011;2170;48.794;9.182;2023-07-08T16:59:25;3.80;;;3.30;;
4313;SDS011;2170;48.794;9.182;2023-07-08T17:01:56;4.93;;;2.93;;
4313;SDS011;2170;48.794;9.182;2023-07-08T17:04:49;3.03;;;2.70;;
4313;SDS011;2170;48.794;9.182;2023-07-08T17:07:23;4.30;;;3.17;;
4313;SDS011;2170;48.794;9.182;2023-07-08T17:09:54;2.87;;;2.67;;
4313;SDS011;2170;48.794;9.182;2023-07-08T17:12:23;5.93;;;2.30;;
4313;SDS011;2170;48.794;9.182;2023-07-08T17:14:54;2.77;;;2.57;;
4313;SDS011;2170;48.794;9.182;2023-07-08T17:17:30;3.67;;;2.90;;
4313;SDS011;2170;48.794;9.182;2023-07-08T17:20:58;3.53;;;2.23;;
4313;SDS011;2170;48.794;9.182;2023-07-08T17:27:16;3.30;;;2.50;;
4313;SDS011;2170;48.794;9.182;2023-07-08T17:30:03;3.73;;;2.93;;
4313;SDS011;2170;48.794;9.182;2023-07-08T17:32:58;3.13;;;2.43;;
4313;SDS011;2170;48.794;9.182;2023-07-08T17:35:32;4.20;;;3.20;;
4313;SDS011;2170;48.794;9.182;2023-07-08T17:38:01;3.60;;;3.10;;
4313;SDS011;2170;48.794;9.182;2023-07-08T17:40:31;4.40;;;3.13;;
4313;SDS011;2170;48.794;9.182;2023-07-08T17:43:00;3.30;;;2.80;;
4313;SDS011;2170;48.794;9.182;2023-07-08T17:45:33;3.30;;;3.03;;
4313;SDS011;2170;48.794;9.182;2023-07-08T17:48:07;3.70;;;2.80;;
4313;SDS011;2170;48.794;9.182;2023-07-08T17:50:37;3.10;;;2.67;;
4313;SDS011;2170;48.794;9.182;2023-07-08T17:53:14;5.17;;;3.00;;
4313;SDS011;2170;48.794;9.182;2023-07-08T17:55:51;3.97;;;3.20;;
4313;SDS011;2170;48.794;9.182;2023-07-08T17:58:20;4.20;;;3.37;;
4313;SDS011;2170;48.794;9.182;2023-07-08T18:00:53;3.80;;;3.40;;
4313;SDS011;2170;48.794;9.182;2023-07-08T18:03:23;3.97;;;2.70;;
4313;SDS011;2170;48.794;9.182;2023-07-08T18:05:54;3.17;;;2.90;;
4313;SDS011;2170;48.794;9.182;2023-07-08T18:08:23;3.10;;;2.80;;
4313;SDS011;2170;48.794;9.182;2023-07-08T18:10:53;3.27;;;2.80;;
4313;SDS011;2170;48.794;9.182;2023-07-08T18:13:24;3.23;;;2.53;;
4313;SDS011;2170;48.794;9.182;2023-07-08T18:16:01;4.23;;;2.80;;